Terminal Aerodrome Forecast
Issued by NWS

Home | Current Version | Previous Version | Text Only | Print | Product List | Glossary On
Versions: 1 2 3 4 5 6 7 8 9 10 11 12 13 14 15 16 17 18 19 20 21 22 23
819
FTUS46 KLOX 111724
TAFLAX
TAF
KLAX 111724Z 1118/1224 10004KT P6SM SKC
     FM112100 27010KT P6SM SCT250
     FM120400 VRB03KT P6SM BKN250
     FM121400 08006KT P6SM BKN250
     FM122000 26007KT P6SM SCT250=

USA.gov is the U.S. government's official web portal to all federal, state and local government web resources and services.